createdAt,value
2023-03-20T00:00:29.497Z,89.69
2023-03-20T00:01:25.401Z,89.69
2023-03-20T00:02:20.543Z,89.62
2023-03-20T00:03:15.639Z,89.69
2023-03-20T00:04:10.858Z,89.70
2023-03-20T00:05:05.934Z,89.73
2023-03-20T00:06:01.010Z,89.80
2023-03-20T00:06:56.941Z,89.95
2023-03-20T00:07:52.302Z,89.97
2023-03-20T00:08:47.413Z,89.96
2023-03-20T00:09:42.707Z,89.96
2023-03-20T00:10:37.672Z,89.89
2023-03-20T00:11:32.859Z,89.78
2023-03-20T00:12:29.074Z,89.74
2023-03-20T00:13:24.297Z,89.72
2023-03-20T00:14:19.421Z,89.88
2023-03-20T00:15:14.530Z,89.89
2023-03-20T00:16:09.654Z,89.82
2023-03-20T00:17:05.483Z,89.90
2023-03-20T00:18:00.559Z,89.99
2023-03-20T00:18:55.794Z,89.96
2023-03-20T00:19:51.083Z,89.93
2023-03-20T00:20:46.031Z,89.90
2023-03-20T00:21:41.075Z,89.82
2023-03-20T00:22:36.198Z,89.46
2023-03-20T00:23:31.314Z,89.24
2023-03-20T00:24:26.714Z,89.04
2023-03-20T00:25:21.666Z,88.63
2023-03-20T00:26:16.948Z,88.50
2023-03-20T00:27:12.019Z,88.50
2023-03-20T00:28:07.226Z,88.53
2023-03-20T00:29:02.296Z,88.58
2023-03-20T00:29:57.460Z,88.55
2023-03-20T00:30:52.523Z,88.61
2023-03-20T00:31:47.904Z,88.61
2023-03-20T00:32:42.899Z,88.48
2023-03-20T00:33:38.066Z,88.42
2023-03-20T00:34:33.495Z,88.39
2023-03-20T00:35:28.582Z,88.34
2023-03-20T00:36:23.956Z,88.33
2023-03-20T00:37:19.052Z,88.34
2023-03-20T00:38:14.232Z,88.30
2023-03-20T00:39:09.639Z,88.22
2023-03-20T00:40:04.745Z,88.31
2023-03-20T00:40:59.967Z,88.40
2023-03-20T00:41:55.046Z,88.43
2023-03-20T00:42:50.293Z,88.44
2023-03-20T00:43:45.340Z,88.38
2023-03-20T00:44:42.353Z,88.29
2023-03-20T00:45:35.917Z,88.20
2023-03-20T00:46:30.808Z,88.24
2023-03-20T00:47:25.887Z,88.28
2023-03-20T00:48:21.222Z,88.47
2023-03-20T00:49:16.440Z,88.50
2023-03-20T00:50:11.569Z,88.60
2023-03-20T00:51:06.552Z,88.80
2023-03-20T00:52:01.607Z,88.89
2023-03-20T00:52:57.001Z,88.93
2023-03-20T00:53:52.102Z,88.95
2023-03-20T00:54:47.349Z,88.92
2023-03-20T00:55:42.308Z,88.88
2023-03-20T00:56:37.563Z,88.78
2023-03-20T00:57:32.764Z,88.74
2023-03-20T00:58:27.890Z,88.68
2023-03-20T00:59:22.968Z,88.74
2023-03-20T01:00:18.247Z,88.86
2023-03-20T01:01:13.260Z,89.05
2023-03-20T01:02:08.214Z,89.21
2023-03-20T01:03:03.317Z,89.23
2023-03-20T01:03:58.426Z,89.30
2023-03-20T01:04:53.653Z,89.31
2023-03-20T01:05:48.528Z,89.36
2023-03-20T01:06:43.585Z,89.45
2023-03-20T01:07:38.590Z,89.30
2023-03-20T01:08:33.591Z,89.35
2023-03-20T01:09:28.723Z,89.35
2023-03-20T01:10:23.775Z,89.40
2023-03-20T01:11:18.870Z,89.42
2023-03-20T01:12:13.842Z,89.36
2023-03-20T01:13:09.049Z,89.29
2023-03-20T01:14:04.019Z,89.46
2023-03-20T01:14:59.196Z,89.51
2023-03-20T01:15:54.117Z,89.62
2023-03-20T01:16:49.327Z,89.64
2023-03-20T01:17:44.316Z,89.56
2023-03-20T01:18:39.336Z,89.48
2023-03-20T01:19:34.421Z,89.41
2023-03-20T01:20:29.465Z,89.42
2023-03-20T01:21:24.422Z,89.61
2023-03-20T01:22:19.579Z,89.64
2023-03-20T01:23:14.514Z,89.63
2023-03-20T01:24:09.637Z,89.59
2023-03-20T01:25:04.645Z,89.59
2023-03-20T01:25:59.652Z,89.76
2023-03-20T01:26:58.246Z,89.89
2023-03-20T01:27:53.375Z,89.89
2023-03-20T01:28:48.484Z,89.85
2023-03-20T01:29:43.806Z,89.79
2023-03-20T01:30:38.648Z,89.67
2023-03-20T01:31:33.902Z,89.58
2023-03-20T01:32:28.734Z,89.49
2023-03-20T01:33:23.874Z,89.49
2023-03-20T01:34:19.048Z,89.49
2023-03-20T01:35:14.112Z,89.48
2023-03-20T01:36:09.161Z,89.52
2023-03-20T01:37:04.270Z,89.52
2023-03-20T01:37:59.263Z,89.49
2023-03-20T01:38:54.369Z,89.46
2023-03-20T01:39:49.525Z,89.45
2023-03-20T01:40:45.082Z,89.48
2023-03-20T01:41:40.194Z,89.51
2023-03-20T01:42:36.010Z,89.52
2023-03-20T01:43:31.096Z,89.56
2023-03-20T01:44:26.517Z,89.47
2023-03-20T01:45:22.197Z,89.52
2023-03-20T01:46:17.545Z,89.54
2023-03-20T01:47:12.695Z,89.63
2023-03-20T01:48:09.018Z,89.65
2023-03-20T01:49:04.154Z,89.76
2023-03-20T01:49:59.989Z,89.84
2023-03-20T01:50:55.034Z,89.94
2023-03-20T01:51:50.181Z,90.03
2023-03-20T01:52:45.955Z,90.08
2023-03-20T01:53:41.230Z,90.13
2023-03-20T01:54:37.192Z,90.17
2023-03-20T01:55:32.144Z,90.21
2023-03-20T01:56:27.271Z,90.21
2023-03-20T01:57:23.225Z,90.19
2023-03-20T01:58:18.343Z,90.11
2023-03-20T01:59:13.599Z,90.16
2023-03-20T02:00:09.930Z,90.13
2023-03-20T02:01:05.066Z,90.12
2023-03-20T02:02:00.835Z,90.12
2023-03-20T02:02:56.108Z,90.16
2023-03-20T02:03:51.353Z,90.16
2023-03-20T02:04:47.104Z,90.19
2023-03-20T02:05:42.388Z,90.21
2023-03-20T02:06:38.187Z,90.21
2023-03-20T02:07:33.265Z,90.19
2023-03-20T02:08:28.400Z,90.16
2023-03-20T02:09:24.214Z,90.18
2023-03-20T02:10:19.659Z,89.98
2023-03-20T02:11:14.716Z,90.03
2023-03-20T02:12:11.077Z,90.04
2023-03-20T02:13:06.165Z,90.06
2023-03-20T02:14:01.984Z,90.03
2023-03-20T02:14:57.063Z,89.96
2023-03-20T02:15:52.612Z,89.96
2023-03-20T02:16:47.483Z,90.02
2023-03-20T02:17:42.602Z,90.06
2023-03-20T02:18:39.190Z,90.05
2023-03-20T02:19:34.453Z,89.98
2023-03-20T02:20:30.310Z,90.09
2023-03-20T02:21:25.388Z,90.06
2023-03-20T02:22:20.492Z,90.00
2023-03-20T02:23:16.308Z,89.89
2023-03-20T02:24:11.401Z,89.75
2023-03-20T02:25:07.346Z,89.70
2023-03-20T02:26:02.372Z,89.58
2023-03-20T02:26:57.485Z,89.55
2023-03-20T02:27:53.298Z,89.57
2023-03-20T02:28:48.586Z,89.68
2023-03-20T02:29:43.776Z,89.69
2023-03-20T02:30:40.357Z,89.75
2023-03-20T02:31:35.337Z,89.78
2023-03-20T02:32:31.177Z,89.78
2023-03-20T02:33:26.244Z,89.75
2023-03-20T02:34:21.616Z,89.69
2023-03-20T02:35:16.585Z,89.68
2023-03-20T02:36:12.026Z,89.63
2023-03-20T02:37:07.296Z,89.60
2023-03-20T02:38:02.534Z,89.58
2023-03-20T02:38:57.755Z,89.58
2023-03-20T02:39:53.441Z,89.62
2023-03-20T02:40:48.695Z,89.65
2023-03-20T02:41:43.704Z,89.68
2023-03-20T02:42:38.810Z,89.71
2023-03-20T02:43:33.896Z,89.76
2023-03-20T02:44:28.969Z,89.94
2023-03-20T02:45:24.195Z,89.89
2023-03-20T02:46:19.162Z,89.94
2023-03-20T02:47:14.147Z,90.20
2023-03-20T02:48:09.338Z,90.15
2023-03-20T02:49:04.469Z,90.09
2023-03-20T02:49:59.545Z,89.93
2023-03-20T02:50:54.655Z,89.97
2023-03-20T02:51:49.632Z,89.74
2023-03-20T02:52:44.758Z,89.68
2023-03-20T02:53:39.859Z,89.65
2023-03-20T02:54:34.977Z,89.57
2023-03-20T02:55:29.977Z,89.67
2023-03-20T02:56:25.075Z,89.75
2023-03-20T02:57:20.163Z,89.79
2023-03-20T02:58:15.253Z,89.71
2023-03-20T02:59:10.207Z,89.73
2023-03-20T03:00:05.338Z,89.79
2023-03-20T03:01:00.395Z,89.84
2023-03-20T03:01:55.598Z,89.81
2023-03-20T03:02:50.625Z,89.72
2023-03-20T03:03:45.607Z,89.71
2023-03-20T03:04:40.675Z,89.75
2023-03-20T03:05:36.262Z,89.89
2023-03-20T03:06:30.777Z,90.03
2023-03-20T03:07:25.852Z,90.04
2023-03-20T03:08:20.948Z,90.01
2023-03-20T03:09:17.812Z,90.03
2023-03-20T03:10:11.098Z,90.01
2023-03-20T03:11:06.194Z,90.01
2023-03-20T03:12:01.184Z,90.06
2023-03-20T03:12:56.398Z,90.02
2023-03-20T03:13:52.730Z,90.18
2023-03-20T03:14:48.473Z,90.36
2023-03-20T03:15:43.569Z,90.44
2023-03-20T03:16:38.694Z,90.53
2023-03-20T03:17:34.471Z,90.54
2023-03-20T03:18:29.617Z,90.54
2023-03-20T03:19:25.399Z,90.53
2023-03-20T03:20:20.700Z,90.46
2023-03-20T03:21:15.836Z,90.44
2023-03-20T03:22:11.636Z,90.41
2023-03-20T03:23:06.784Z,90.48
2023-03-20T03:24:01.984Z,90.54
2023-03-20T03:24:58.195Z,90.64
2023-03-20T03:25:53.602Z,90.66
2023-03-20T03:26:49.250Z,90.72
2023-03-20T03:27:44.491Z,90.66
2023-03-20T03:28:39.594Z,90.70
2023-03-20T03:29:35.423Z,90.73
2023-03-20T03:30:30.562Z,90.76
2023-03-20T03:31:26.565Z,90.80
2023-03-20T03:32:21.550Z,90.92
2023-03-20T03:33:16.889Z,91.05
2023-03-20T03:34:12.587Z,91.12
2023-03-20T03:35:07.841Z,91.24
2023-03-20T03:36:03.298Z,91.29
2023-03-20T03:36:59.404Z,91.30
2023-03-20T03:37:54.492Z,91.27
2023-03-20T03:38:50.341Z,91.28
2023-03-20T03:39:45.408Z,91.24
2023-03-20T03:40:40.804Z,91.21
2023-03-20T03:41:36.664Z,91.18
2023-03-20T03:42:31.646Z,91.09
2023-03-20T03:43:27.460Z,90.97
2023-03-20T03:44:22.568Z,90.96
2023-03-20T03:45:17.944Z,90.95
2023-03-20T03:46:13.837Z,90.85
2023-03-20T03:47:08.829Z,90.76
2023-03-20T03:48:03.931Z,90.69
2023-03-20T03:49:00.248Z,90.64
2023-03-20T03:49:55.532Z,90.55
2023-03-20T03:50:51.400Z,90.49
2023-03-20T03:51:46.466Z,90.42
2023-03-20T03:52:41.583Z,90.42
2023-03-20T03:53:37.403Z,90.37
2023-03-20T03:54:32.515Z,90.35
2023-03-20T03:55:28.336Z,90.47
2023-03-20T03:56:23.451Z,90.54
2023-03-20T03:57:18.814Z,90.55
2023-03-20T03:58:14.602Z,90.58
2023-03-20T03:59:10.100Z,90.46
2023-03-20T04:00:04.882Z,90.43
2023-03-20T04:01:01.852Z,90.43
2023-03-20T04:01:56.841Z,90.43
2023-03-20T04:02:52.640Z,90.48
2023-03-20T04:03:47.754Z,90.47
2023-03-20T04:04:42.974Z,90.54
2023-03-20T04:05:38.690Z,90.67
2023-03-20T04:06:33.802Z,90.69
2023-03-20T04:07:29.709Z,90.65
2023-03-20T04:08:24.809Z,90.67
2023-03-20T04:09:19.910Z,90.71
2023-03-20T04:10:15.941Z,90.80
2023-03-20T04:11:10.888Z,90.81
2023-03-20T04:12:06.250Z,90.83
2023-03-20T04:13:02.468Z,90.85
2023-03-20T04:13:57.735Z,90.86
2023-03-20T04:14:52.928Z,90.88
2023-03-20T04:15:48.062Z,90.81
2023-03-20T04:16:44.629Z,90.86
2023-03-20T04:17:40.024Z,90.88
2023-03-20T04:18:35.018Z,90.93
2023-03-20T04:19:31.519Z,90.97
2023-03-20T04:20:26.707Z,91.02
2023-03-20T04:21:22.538Z,91.08
2023-03-20T04:22:17.613Z,91.14
2023-03-20T04:23:12.797Z,91.24
2023-03-20T04:24:08.599Z,91.27
2023-03-20T04:25:03.725Z,91.25
2023-03-20T04:25:59.712Z,91.30
2023-03-20T04:26:54.669Z,91.37
2023-03-20T04:27:49.806Z,91.40
2023-03-20T04:28:45.753Z,91.40
2023-03-20T04:29:40.877Z,91.37
2023-03-20T04:30:36.119Z,91.38
2023-03-20T04:31:32.352Z,91.43
2023-03-20T04:32:27.441Z,91.46
2023-03-20T04:33:22.640Z,91.41
2023-03-20T04:34:17.691Z,91.31
2023-03-20T04:35:12.781Z,91.27
2023-03-20T04:36:08.823Z,91.28
2023-03-20T04:37:03.923Z,91.25
2023-03-20T04:37:59.148Z,91.20
2023-03-20T04:38:57.489Z,91.22
2023-03-20T04:39:50.074Z,91.21
2023-03-20T04:40:45.907Z,91.29
2023-03-20T04:41:41.150Z,91.27
2023-03-20T04:42:36.301Z,91.29
2023-03-20T04:43:31.531Z,91.30
2023-03-20T04:44:26.677Z,91.32
2023-03-20T04:45:22.086Z,91.36
2023-03-20T04:46:18.247Z,91.41
2023-03-20T04:47:13.341Z,91.42
2023-03-20T04:48:08.476Z,91.45
2023-03-20T04:49:03.612Z,91.46
2023-03-20T04:49:58.779Z,91.45
2023-03-20T04:50:54.728Z,91.51
2023-03-20T04:51:49.948Z,91.56
2023-03-20T04:52:45.099Z,91.57
2023-03-20T04:53:40.228Z,91.54
2023-03-20T04:54:36.675Z,91.49
2023-03-20T04:55:32.101Z,91.46
2023-03-20T04:56:27.084Z,91.40
2023-03-20T04:57:22.352Z,91.44
2023-03-20T04:58:17.424Z,91.46
2023-03-20T04:59:12.594Z,91.50
2023-03-20T05:00:07.697Z,91.53
2023-03-20T05:01:03.165Z,91.58
2023-03-20T05:01:58.761Z,91.59
2023-03-20T05:02:54.083Z,91.64
2023-03-20T05:03:49.942Z,91.64
2023-03-20T05:04:45.186Z,91.61
2023-03-20T05:05:40.431Z,91.56
2023-03-20T05:06:36.120Z,91.56
2023-03-20T05:07:31.206Z,91.41
2023-03-20T05:08:26.467Z,91.28
2023-03-20T05:09:22.815Z,91.14
2023-03-20T05:10:18.245Z,91.04
2023-03-20T05:11:13.912Z,90.90
2023-03-20T05:12:09.196Z,90.83
2023-03-20T05:13:04.373Z,90.71
2023-03-20T05:14:00.240Z,90.64
2023-03-20T05:14:55.608Z,90.62
2023-03-20T05:15:51.203Z,90.55
2023-03-20T05:16:46.387Z,90.50
2023-03-20T05:17:41.723Z,90.38
2023-03-20T05:18:37.440Z,90.39
2023-03-20T05:19:32.659Z,90.34
2023-03-20T05:20:27.812Z,90.30
2023-03-20T05:21:24.277Z,90.36
2023-03-20T05:22:19.457Z,90.39
2023-03-20T05:23:15.238Z,90.35
2023-03-20T05:24:10.446Z,90.25
2023-03-20T05:25:05.705Z,90.23
2023-03-20T05:26:01.494Z,90.22
2023-03-20T05:26:56.696Z,90.15
2023-03-20T05:27:52.609Z,90.06
2023-03-20T05:28:47.783Z,89.97
2023-03-20T05:29:43.196Z,89.96
2023-03-20T05:30:39.114Z,89.95
2023-03-20T05:31:34.344Z,89.91
2023-03-20T05:32:29.753Z,89.93
2023-03-20T05:33:25.863Z,89.97
2023-03-20T05:34:21.160Z,90.06
2023-03-20T05:35:17.022Z,90.09
2023-03-20T05:36:12.197Z,90.07
2023-03-20T05:37:07.573Z,90.00
2023-03-20T05:38:03.296Z,89.78
2023-03-20T05:38:58.569Z,89.65
2023-03-20T05:39:54.489Z,89.56
2023-03-20T05:40:49.614Z,89.54
2023-03-20T05:41:45.974Z,89.49
2023-03-20T05:42:40.755Z,89.48
2023-03-20T05:43:36.073Z,89.38
2023-03-20T05:44:31.401Z,89.42
2023-03-20T05:45:27.707Z,89.45
2023-03-20T05:46:23.086Z,89.46
2023-03-20T05:47:18.822Z,89.46
2023-03-20T05:48:14.126Z,89.43
2023-03-20T05:49:09.467Z,89.48
2023-03-20T05:50:05.296Z,89.44
2023-03-20T05:51:00.676Z,89.44
2023-03-20T05:51:56.330Z,89.39
2023-03-20T05:52:51.669Z,89.36
2023-03-20T05:53:47.004Z,89.30
2023-03-20T05:54:42.774Z,89.26
2023-03-20T05:55:38.465Z,89.21
2023-03-20T05:56:33.563Z,89.13
2023-03-20T05:57:30.311Z,89.07
2023-03-20T05:58:25.665Z,89.05
2023-03-20T05:59:21.656Z,89.07
2023-03-20T06:00:16.785Z,89.08
2023-03-20T06:01:12.137Z,89.09
2023-03-20T06:02:07.565Z,89.06
2023-03-20T06:03:03.532Z,89.07
2023-03-20T06:03:59.077Z,89.08
2023-03-20T06:04:54.214Z,89.18
2023-03-20T06:05:49.991Z,89.23
2023-03-20T06:06:45.322Z,89.22
2023-03-20T06:07:40.635Z,89.17
2023-03-20T06:08:37.103Z,89.08
2023-03-20T06:09:32.476Z,89.07
2023-03-20T06:10:28.244Z,89.13
2023-03-20T06:11:23.630Z,89.15
2023-03-20T06:12:18.952Z,89.22
2023-03-20T06:13:14.769Z,89.21
2023-03-20T06:14:10.274Z,89.21
2023-03-20T06:15:06.016Z,89.06
2023-03-20T06:16:01.269Z,88.92
2023-03-20T06:16:56.719Z,88.91
2023-03-20T06:17:52.479Z,88.91
2023-03-20T06:18:47.857Z,88.99
2023-03-20T06:19:43.213Z,88.93
2023-03-20T06:20:38.556Z,88.93
2023-03-20T06:21:33.919Z,88.96
2023-03-20T06:22:33.101Z,88.95
2023-03-20T06:23:28.341Z,89.07
2023-03-20T06:24:23.933Z,89.12
2023-03-20T06:25:19.451Z,89.18
2023-03-20T06:26:14.835Z,89.18
2023-03-20T06:27:10.345Z,89.25
2023-03-20T06:28:06.593Z,89.28
2023-03-20T06:29:02.018Z,89.31
2023-03-20T06:29:57.832Z,89.31
2023-03-20T06:30:53.322Z,89.16
2023-03-20T06:31:48.816Z,89.12
2023-03-20T06:32:44.438Z,89.07
2023-03-20T06:33:39.824Z,89.04
2023-03-20T06:34:35.541Z,88.96
2023-03-20T06:35:31.086Z,89.00
2023-03-20T06:36:26.320Z,88.98
2023-03-20T06:37:22.172Z,88.95
2023-03-20T06:38:17.551Z,88.96
2023-03-20T06:39:13.168Z,89.01
2023-03-20T06:40:09.226Z,88.84
2023-03-20T06:41:04.647Z,88.70
2023-03-20T06:42:00.443Z,88.64
2023-03-20T06:42:55.818Z,88.43
2023-03-20T06:43:52.094Z,88.32
2023-03-20T06:44:47.205Z,88.39
2023-03-20T06:45:42.455Z,88.41
2023-03-20T06:46:38.433Z,88.44
2023-03-20T06:47:33.670Z,88.55
2023-03-20T06:48:29.254Z,88.62
2023-03-20T06:49:24.954Z,88.66
2023-03-20T06:50:20.379Z,88.64
2023-03-20T06:51:15.890Z,88.64
2023-03-20T06:52:12.507Z,88.63
2023-03-20T06:53:07.901Z,88.51
2023-03-20T06:54:03.892Z,88.45
2023-03-20T06:54:59.148Z,88.35
2023-03-20T06:55:54.694Z,88.15
2023-03-20T06:56:50.365Z,88.06
2023-03-20T06:57:45.829Z,87.97
2023-03-20T06:58:41.666Z,87.96
2023-03-20T06:59:36.935Z,88.08
2023-03-20T07:00:32.374Z,88.06
2023-03-20T07:01:28.197Z,88.02
2023-03-20T07:02:23.534Z,87.93
2023-03-20T07:03:19.065Z,87.83
2023-03-20T07:04:15.745Z,87.68
2023-03-20T07:05:11.069Z,87.55
2023-03-20T07:06:06.709Z,87.47
2023-03-20T07:07:02.125Z,87.41
2023-03-20T07:07:57.430Z,87.39
2023-03-20T07:08:53.289Z,87.28
2023-03-20T07:09:48.524Z,87.14
2023-03-20T07:10:44.327Z,87.13
2023-03-20T07:11:39.700Z,87.15
2023-03-20T07:12:35.125Z,87.15
2023-03-20T07:13:30.861Z,87.21
2023-03-20T07:14:26.258Z,87.11
2023-03-20T07:15:21.619Z,86.97
2023-03-20T07:16:18.208Z,86.92
2023-03-20T07:17:13.447Z,86.72
2023-03-20T07:18:09.429Z,86.69
2023-03-20T07:19:04.838Z,86.77
2023-03-20T07:20:00.229Z,86.57
2023-03-20T07:20:56.031Z,86.60
2023-03-20T07:21:51.423Z,86.52
2023-03-20T07:22:47.355Z,86.48
2023-03-20T07:23:42.663Z,86.41
2023-03-20T07:24:38.016Z,86.53
2023-03-20T07:25:42.310Z,86.57
2023-03-20T07:26:29.859Z,86.58
2023-03-20T07:27:25.673Z,86.60
2023-03-20T07:28:21.172Z,86.52
2023-03-20T07:29:16.668Z,86.29
2023-03-20T07:30:11.771Z,86.57
2023-03-20T07:31:06.902Z,86.98
2023-03-20T07:32:01.897Z,87.16
2023-03-20T07:32:57.088Z,87.32
2023-03-20T07:33:52.226Z,87.34
2023-03-20T07:34:47.070Z,87.42
2023-03-20T07:35:42.104Z,87.31
2023-03-20T07:36:37.087Z,87.29
2023-03-20T07:37:32.187Z,87.50
2023-03-20T07:38:29.266Z,87.63
2023-03-20T07:39:24.208Z,87.72
2023-03-20T07:40:19.212Z,87.63
2023-03-20T07:41:14.301Z,87.37
2023-03-20T07:42:09.431Z,87.29
2023-03-20T07:43:04.424Z,87.26
2023-03-20T07:43:59.572Z,87.13
2023-03-20T07:44:54.527Z,87.00
2023-03-20T07:45:49.751Z,86.77
2023-03-20T07:46:44.683Z,86.92
2023-03-20T07:47:39.752Z,87.00
2023-03-20T07:48:35.093Z,87.03
2023-03-20T07:49:31.101Z,86.45
2023-03-20T07:50:26.448Z,86.34
2023-03-20T07:51:21.958Z,86.26
2023-03-20T07:52:17.631Z,86.24
2023-03-20T07:53:13.206Z,86.04
2023-03-20T07:54:08.779Z,85.81
2023-03-20T07:55:04.323Z,85.71
2023-03-20T07:55:59.769Z,85.84
2023-03-20T07:56:55.629Z,85.77
2023-03-20T07:57:51.170Z,85.60
2023-03-20T07:58:46.764Z,85.37
2023-03-20T07:59:42.898Z,85.67
2023-03-20T08:00:38.347Z,85.60
2023-03-20T08:01:34.328Z,85.71
2023-03-20T08:02:29.997Z,85.73
2023-03-20T08:03:25.335Z,85.23
2023-03-20T08:04:21.022Z,84.83
2023-03-20T08:05:16.387Z,84.92
2023-03-20T08:06:12.243Z,84.89
2023-03-20T08:07:07.481Z,84.33
2023-03-20T08:08:03.158Z,83.93
2023-03-20T08:08:58.990Z,83.91
2023-03-20T08:09:54.410Z,83.94
2023-03-20T08:10:49.904Z,83.88
2023-03-20T08:11:46.297Z,83.86
2023-03-20T08:12:41.670Z,83.55
2023-03-20T08:13:37.602Z,83.10
2023-03-20T08:14:32.975Z,82.51
2023-03-20T08:15:28.468Z,81.74
2023-03-20T08:16:24.167Z,80.81
2023-03-20T08:17:21.647Z,80.79
2023-03-20T08:18:15.697Z,80.57
2023-03-20T08:19:10.867Z,80.64
2023-03-20T08:20:06.333Z,80.35
2023-03-20T08:21:02.025Z,80.51
2023-03-20T08:21:57.439Z,79.65
2023-03-20T08:22:52.889Z,78.68
2023-03-20T08:23:49.273Z,79.04
2023-03-20T08:24:44.879Z,79.07
2023-03-20T08:25:40.659Z,78.20
2023-03-20T08:26:36.250Z,78.06
2023-03-20T08:27:31.680Z,77.53
2023-03-20T08:28:45.907Z,77.84
2023-03-20T08:29:23.949Z,77.82
2023-03-20T08:30:18.755Z,77.58
2023-03-20T08:31:14.235Z,77.20
2023-03-20T08:32:09.905Z,77.15
2023-03-20T08:33:05.770Z,77.65
2023-03-20T08:34:01.153Z,77.63
2023-03-20T08:34:56.825Z,77.60
2023-03-20T08:35:53.028Z,77.49
2023-03-20T08:36:48.480Z,77.73
2023-03-20T08:37:44.708Z,77.64
2023-03-20T08:38:40.083Z,77.42
2023-03-20T08:39:35.410Z,77.87
2023-03-20T08:40:30.968Z,77.76
2023-03-20T08:41:26.738Z,77.76
2023-03-20T08:42:22.281Z,77.58
2023-03-20T08:43:17.899Z,77.01
2023-03-20T08:44:13.453Z,76.92
2023-03-20T08:45:08.943Z,77.50
2023-03-20T08:46:04.651Z,78.05
2023-03-20T08:47:00.759Z,77.34
2023-03-20T08:47:56.522Z,76.98
2023-03-20T08:48:51.960Z,77.00
2023-03-20T08:49:47.512Z,77.14
2023-03-20T08:50:42.909Z,76.63
2023-03-20T08:51:38.624Z,76.46
2023-03-20T08:52:34.404Z,76.43
2023-03-20T08:53:29.967Z,75.90
2023-03-20T08:54:25.352Z,75.38
2023-03-20T08:55:20.984Z,74.71
2023-03-20T08:56:16.905Z,74.43
2023-03-20T08:57:12.632Z,73.52
2023-03-20T08:58:07.736Z,73.38
2023-03-20T08:59:03.495Z,73.40
2023-03-20T08:59:58.999Z,73.72
2023-03-20T09:00:57.508Z,72.89
2023-03-20T09:01:52.981Z,73.04
2023-03-20T09:02:48.358Z,73.33
2023-03-20T09:03:44.145Z,73.17
2023-03-20T09:04:39.653Z,72.16
2023-03-20T09:05:35.014Z,72.01
2023-03-20T09:06:30.500Z,71.90
2023-03-20T09:07:25.673Z,71.80
2023-03-20T09:08:20.512Z,71.98
2023-03-20T09:09:15.515Z,71.65
2023-03-20T09:10:10.623Z,71.19
2023-03-20T09:11:05.690Z,70.32
2023-03-20T09:12:00.740Z,69.93
2023-03-20T09:12:55.879Z,69.20
2023-03-20T09:13:50.794Z,69.62
2023-03-20T09:14:45.850Z,69.58
2023-03-20T09:15:41.006Z,69.07
2023-03-20T09:16:36.262Z,68.33
2023-03-20T09:17:31.201Z,67.54
2023-03-20T09:18:26.210Z,67.42
2023-03-20T09:19:22.528Z,67.91
2023-03-20T09:20:17.603Z,68.35
2023-03-20T09:21:12.729Z,68.41
2023-03-20T09:22:07.805Z,68.50
2023-03-20T09:23:02.768Z,69.35
2023-03-20T09:23:57.912Z,70.41
2023-03-20T09:24:52.850Z,70.66
2023-03-20T09:25:47.863Z,70.71
2023-03-20T09:26:42.911Z,70.65
2023-03-20T09:27:38.325Z,70.71
2023-03-20T09:28:34.538Z,71.23
2023-03-20T09:29:29.941Z,71.78
2023-03-20T09:30:25.794Z,72.36
2023-03-20T09:31:21.271Z,72.70
2023-03-20T09:32:16.901Z,72.66
2023-03-20T09:33:12.552Z,72.84
2023-03-20T09:34:08.128Z,72.94
2023-03-20T09:35:04.154Z,73.40
2023-03-20T09:35:59.457Z,73.88
2023-03-20T09:36:54.985Z,73.96
2023-03-20T09:37:50.572Z,73.99
2023-03-20T09:38:46.037Z,74.27
2023-03-20T09:39:41.585Z,74.00
2023-03-20T09:40:37.853Z,73.77
2023-03-20T09:41:33.198Z,73.29
2023-03-20T09:42:29.086Z,73.40
2023-03-20T09:43:24.547Z,73.75
2023-03-20T09:44:19.983Z,74.02
2023-03-20T09:45:15.775Z,73.54
2023-03-20T09:46:11.232Z,73.33
2023-03-20T09:47:19.491Z,73.75
2023-03-20T09:48:03.456Z,73.95
2023-03-20T09:48:58.626Z,74.28
2023-03-20T09:49:53.975Z,73.95
2023-03-20T09:50:49.669Z,73.83
2023-03-20T09:51:45.253Z,74.01
2023-03-20T09:52:40.588Z,74.04
2023-03-20T09:53:36.315Z,73.83
2023-03-20T09:54:40.428Z,73.54
2023-03-20T09:55:28.224Z,73.37
2023-03-20T09:56:22.717Z,73.47
2023-03-20T09:57:18.449Z,73.69
2023-03-20T09:58:14.011Z,73.67
2023-03-20T09:59:09.467Z,73.28
2023-03-20T10:00:05.840Z,73.45
2023-03-20T10:01:01.413Z,72.96
2023-03-20T10:01:57.157Z,72.54
2023-03-20T10:02:52.615Z,72.95
2023-03-20T10:03:47.983Z,73.13
2023-03-20T10:04:43.976Z,73.39
2023-03-20T10:05:39.414Z,73.01
2023-03-20T10:06:35.135Z,72.35
2023-03-20T10:07:30.599Z,72.42
2023-03-20T10:08:26.012Z,72.13
2023-03-20T10:09:22.019Z,72.01
2023-03-20T10:10:17.464Z,71.58
2023-03-20T10:11:13.030Z,71.40
2023-03-20T10:12:09.214Z,71.93
2023-03-20T10:13:04.677Z,71.37
2023-03-20T10:14:00.520Z,71.74
2023-03-20T10:14:55.978Z,71.75
2023-03-20T10:15:51.491Z,71.59
2023-03-20T10:16:47.329Z,71.21
2023-03-20T10:17:42.634Z,70.76
2023-03-20T10:18:38.529Z,71.12
2023-03-20T10:19:33.848Z,71.25
2023-03-20T10:20:29.279Z,70.96
2023-03-20T10:21:24.673Z,70.61
2023-03-20T10:22:20.117Z,70.38
2023-03-20T10:23:16.644Z,70.09
2023-03-20T10:24:12.116Z,70.26
2023-03-20T10:25:07.829Z,70.31
2023-03-20T10:26:03.283Z,69.88
2023-03-20T10:26:58.847Z,70.04
2023-03-20T10:27:54.645Z,70.31
2023-03-20T10:28:50.129Z,70.20
2023-03-20T10:29:45.928Z,69.89
2023-03-20T10:30:41.415Z,69.24
2023-03-20T10:31:36.947Z,68.89
2023-03-20T10:32:33.025Z,68.60
2023-03-20T10:33:28.417Z,68.41
2023-03-20T10:34:23.902Z,68.51
2023-03-20T10:35:20.413Z,68.50
2023-03-20T10:36:15.875Z,68.72
2023-03-20T10:37:11.938Z,68.64
2023-03-20T10:38:07.567Z,69.17
2023-03-20T10:39:02.981Z,68.53
2023-03-20T10:39:58.459Z,67.83
2023-03-20T10:40:53.899Z,67.86
2023-03-20T10:41:49.378Z,68.20
2023-03-20T10:42:44.431Z,68.28
2023-03-20T10:43:43.024Z,68.04
2023-03-20T10:44:34.680Z,67.57
2023-03-20T10:45:29.778Z,67.62
2023-03-20T10:46:25.273Z,67.74
2023-03-20T10:47:20.573Z,67.30
2023-03-20T10:48:15.953Z,67.02
2023-03-20T10:49:11.577Z,67.33
2023-03-20T10:50:06.778Z,67.25
2023-03-20T10:51:01.725Z,67.16
2023-03-20T10:51:56.974Z,66.49
2023-03-20T10:52:51.789Z,66.09
2023-03-20T10:53:46.888Z,66.11
2023-03-20T10:54:41.972Z,65.99
2023-03-20T10:55:37.097Z,66.07
2023-03-20T10:56:32.149Z,66.18
2023-03-20T10:57:27.538Z,65.78
2023-03-20T10:58:22.357Z,65.45
2023-03-20T10:59:17.434Z,65.69
2023-03-20T11:00:12.402Z,66.24
2023-03-20T11:01:10.107Z,65.87
2023-03-20T11:02:05.059Z,65.69
2023-03-20T11:03:00.088Z,65.12
2023-03-20T11:03:55.103Z,65.04
2023-03-20T11:04:50.226Z,65.03
2023-03-20T11:05:52.705Z,65.07
2023-03-20T11:06:41.303Z,65.18
2023-03-20T11:07:35.339Z,65.18
2023-03-20T11:08:30.746Z,65.08
2023-03-20T11:09:26.141Z,65.06
2023-03-20T11:10:22.754Z,64.96
2023-03-20T11:11:18.222Z,63.92
2023-03-20T11:12:14.169Z,63.69
2023-03-20T11:13:09.680Z,63.73
2023-03-20T11:14:05.092Z,63.87
2023-03-20T11:15:00.946Z,64.67
2023-03-20T11:15:56.474Z,64.19
2023-03-20T11:16:52.413Z,64.26
2023-03-20T11:17:47.906Z,64.55
2023-03-20T11:18:43.023Z,64.70
2023-03-20T11:19:38.754Z,63.99
2023-03-20T11:20:34.368Z,63.65
2023-03-20T11:21:29.600Z,63.99
2023-03-20T11:22:26.272Z,64.68
2023-03-20T11:23:21.666Z,64.31
2023-03-20T11:24:17.615Z,64.62
2023-03-20T11:25:13.179Z,65.05
2023-03-20T11:26:08.529Z,64.26
2023-03-20T11:27:04.383Z,64.22
2023-03-20T11:28:00.094Z,64.30
2023-03-20T11:28:56.566Z,64.94
2023-03-20T11:29:51.145Z,65.02
2023-03-20T11:31:03.639Z,64.70
2023-03-20T11:31:43.854Z,64.53
2023-03-20T11:32:38.278Z,64.65
2023-03-20T11:33:33.670Z,64.58
2023-03-20T11:34:29.984Z,64.96
2023-03-20T11:35:25.534Z,64.66
2023-03-20T11:36:21.375Z,64.60
2023-03-20T11:37:17.009Z,64.44
2023-03-20T11:38:12.320Z,64.24
2023-03-20T11:39:08.020Z,64.05
2023-03-20T11:40:03.554Z,64.10
2023-03-20T11:40:59.524Z,64.36
2023-03-20T11:41:54.970Z,64.54
2023-03-20T11:42:50.474Z,64.55
2023-03-20T11:43:46.322Z,64.43
2023-03-20T11:44:41.838Z,63.74
2023-03-20T11:45:37.452Z,63.85
2023-03-20T11:46:33.714Z,64.12
2023-03-20T11:47:29.283Z,64.40
2023-03-20T11:48:25.140Z,64.98
2023-03-20T11:49:20.599Z,64.73
2023-03-20T11:50:16.198Z,64.85
2023-03-20T11:51:11.916Z,65.04
2023-03-20T11:52:07.423Z,64.88
2023-03-20T11:53:03.075Z,64.68
2023-03-20T11:53:58.160Z,63.75